sensor_id;sensor_type;location;lat;lon;timestamp;pressure;altitude;pressure_sealevel;temperature;humidity
21433;BME280;18592;49.708;10.900;2023-02-26T00:00:33;98105.38;;;4.72;50.91
21433;BME280;18592;49.708;10.900;2023-02-26T00:02:35;98100.66;;;4.68;50.68
21433;BME280;18592;49.708;10.900;2023-02-26T00:04:37;98100.03;;;4.66;51.20
21433;BME280;18592;49.708;10.900;2023-02-26T00:06:40;98115.63;;;4.64;51.43
21433;BME280;18592;49.708;10.900;2023-02-26T00:08:57;98114.44;;;4.60;50.69
21433;BME280;18592;49.708;10.900;2023-02-26T00:10:58;98111.31;;;4.63;51.26
21433;BME280;18592;49.708;10.900;2023-02-26T00:13:10;98106.34;;;4.60;50.95
21433;BME280;18592;49.708;10.900;2023-02-26T00:15:15;98117.34;;;4.58;50.61
21433;BME280;18592;49.708;10.900;2023-02-26T00:17:36;98114.88;;;4.57;50.54
21433;BME280;18592;49.708;10.900;2023-02-26T00:19:41;98115.72;;;4.57;51.25
21433;BME280;18592;49.708;10.900;2023-02-26T00:21:43;98118.41;;;4.57;51.05
21433;BME280;18592;49.708;10.900;2023-02-26T00:23:45;98125.09;;;4.55;51.20
21433;BME280;18592;49.708;10.900;2023-02-26T00:25:47;98123.22;;;4.55;50.47
21433;BME280;18592;49.708;10.900;2023-02-26T00:27:49;98117.44;;;4.52;51.10
21433;BME280;18592;49.708;10.900;2023-02-26T00:29:51;98120.13;;;4.52;50.93
21433;BME280;18592;49.708;10.900;2023-02-26T00:31:53;98127.19;;;4.53;50.68
21433;BME280;18592;49.708;10.900;2023-02-26T00:33:57;98127.19;;;4.53;50.23
21433;BME280;18592;49.708;10.900;2023-02-26T00:36:18;98124.94;;;4.49;50.65
21433;BME280;18592;49.708;10.900;2023-02-26T00:38:26;98132.78;;;4.51;51.21
21433;BME280;18592;49.708;10.900;2023-02-26T00:40:45;98137.00;;;4.47;50.86
21433;BME280;18592;49.708;10.900;2023-02-26T00:42:48;98138.41;;;4.49;50.76
21433;BME280;18592;49.708;10.900;2023-02-26T00:44:50;98137.81;;;4.47;50.29
21433;BME280;18592;49.708;10.900;2023-02-26T00:51:51;98151.31;;;4.47;51.04
21433;BME280;18592;49.708;10.900;2023-02-26T00:54:18;98145.28;;;4.45;50.45
21433;BME280;18592;49.708;10.900;2023-02-26T00:56:24;98150.69;;;4.45;51.30
21433;BME280;18592;49.708;10.900;2023-02-26T00:58:26;98142.59;;;4.45;51.17
21433;BME280;18592;49.708;10.900;2023-02-26T01:00:28;98149.06;;;4.44;50.21
21433;BME280;18592;49.708;10.900;2023-02-26T01:02:30;98142.81;;;4.44;51.15
21433;BME280;18592;49.708;10.900;2023-02-26T01:04:32;98145.53;;;4.44;51.05
21433;BME280;18592;49.708;10.900;2023-02-26T01:06:44;98142.00;;;4.43;50.93
21433;BME280;18592;49.708;10.900;2023-02-26T01:08:55;98139.72;;;4.40;50.90
21433;BME280;18592;49.708;10.900;2023-02-26T01:11:01;98143.25;;;4.41;51.09
21433;BME280;18592;49.708;10.900;2023-02-26T01:13:03;98136.44;;;4.38;50.42
21433;BME280;18592;49.708;10.900;2023-02-26T01:15:06;98142.06;;;4.37;50.75
21433;BME280;18592;49.708;10.900;2023-02-26T01:17:27;98139.56;;;4.35;50.29
21433;BME280;18592;49.708;10.900;2023-02-26T01:19:43;98144.59;;;4.32;51.21
21433;BME280;18592;49.708;10.900;2023-02-26T01:21:52;98148.34;;;4.31;50.39
21433;BME280;18592;49.708;10.900;2023-02-26T01:23:55;98141.31;;;4.30;50.51
21433;BME280;18592;49.708;10.900;2023-02-26T01:26:00;98141.75;;;4.27;50.35
21433;BME280;18592;49.708;10.900;2023-02-26T01:28:04;98143.84;;;4.25;50.24
21433;BME280;18592;49.708;10.900;2023-02-26T01:30:07;98145.91;;;4.23;50.79
21433;BME280;18592;49.708;10.900;2023-02-26T01:32:18;98143.69;;;4.20;50.03
21433;BME280;18592;49.708;10.900;2023-02-26T01:34:41;98142.69;;;4.14;50.13
21433;BME280;18592;49.708;10.900;2023-02-26T01:36:57;98150.78;;;4.14;50.98
21433;BME280;18592;49.708;10.900;2023-02-26T01:39:13;98149.94;;;4.14;50.43
21433;BME280;18592;49.708;10.900;2023-02-26T01:41:27;98146.06;;;4.10;50.80
21433;BME280;18592;49.708;10.900;2023-02-26T01:43:35;98158.09;;;4.07;50.57
21433;BME280;18592;49.708;10.900;2023-02-26T01:46:25;98151.72;;;4.02;50.39
21433;BME280;18592;49.708;10.900;2023-02-26T01:48:53;98155.66;;;3.99;50.09
21433;BME280;18592;49.708;10.900;2023-02-26T01:50:59;98156.94;;;3.97;50.48
21433;BME280;18592;49.708;10.900;2023-02-26T01:53:19;98158.19;;;3.94;50.84
21433;BME280;18592;49.708;10.900;2023-02-26T01:55:26;98164.41;;;3.95;50.93
21433;BME280;18592;49.708;10.900;2023-02-26T01:57:29;98158.63;;;3.91;50.78
21433;BME280;18592;49.708;10.900;2023-02-26T01:59:34;98160.50;;;3.91;50.67
21433;BME280;18592;49.708;10.900;2023-02-26T02:01:40;98154.72;;;3.87;50.19
21433;BME280;18592;49.708;10.900;2023-02-26T02:03:50;98163.44;;;3.82;50.53
21433;BME280;18592;49.708;10.900;2023-02-26T02:05:56;98172.78;;;3.80;50.55
21433;BME280;18592;49.708;10.900;2023-02-26T02:07:59;98174.88;;;3.78;50.70
21433;BME280;18592;49.708;10.900;2023-02-26T02:10:03;98173.69;;;3.74;50.21
21433;BME280;18592;49.708;10.900;2023-02-26T02:14:54;98178.06;;;3.68;50.84
21433;BME280;18592;49.708;10.900;2023-02-26T02:17:12;98173.94;;;3.66;50.67
21433;BME280;18592;49.708;10.900;2023-02-26T02:31:49;98182.91;;;3.53;50.28
21433;BME280;18592;49.708;10.900;2023-02-26T02:36:43;98188.94;;;3.49;50.64
21433;BME280;18592;49.708;10.900;2023-02-26T02:38:49;98190.41;;;3.51;50.26
21433;BME280;18592;49.708;10.900;2023-02-26T02:41:14;98193.28;;;3.50;50.77
21433;BME280;18592;49.708;10.900;2023-02-26T02:43:21;98193.50;;;3.48;50.57
21433;BME280;18592;49.708;10.900;2023-02-26T02:45:37;98193.94;;;3.45;50.08
21433;BME280;18592;49.708;10.900;2023-02-26T02:47:43;98188.78;;;3.44;50.36
21433;BME280;18592;49.708;10.900;2023-02-26T02:49:50;98196.22;;;3.42;50.29
21433;BME280;18592;49.708;10.900;2023-02-26T02:52:25;98198.53;;;3.38;50.57
21433;BME280;18592;49.708;10.900;2023-02-26T02:54:52;98195.44;;;3.35;50.69
21433;BME280;18592;49.708;10.900;2023-02-26T02:57:01;98200.81;;;3.35;50.75
21433;BME280;18592;49.708;10.900;2023-02-26T02:59:22;98197.50;;;3.33;50.53
21433;BME280;18592;49.708;10.900;2023-02-26T03:01:27;98201.03;;;3.33;50.65
21433;BME280;18592;49.708;10.900;2023-02-26T03:03:36;98203.13;;;3.31;50.70
21433;BME280;18592;49.708;10.900;2023-02-26T03:05:39;98206.84;;;3.30;50.68
21433;BME280;18592;49.708;10.900;2023-02-26T03:07:49;98208.72;;;3.30;50.64
21433;BME280;18592;49.708;10.900;2023-02-26T03:09:52;98212.47;;;3.29;50.10
21433;BME280;18592;49.708;10.900;2023-02-26T03:11:55;98217.00;;;3.28;50.55
21433;BME280;18592;49.708;10.900;2023-02-26T03:13:59;98212.88;;;3.26;50.31
21433;BME280;18592;49.708;10.900;2023-02-26T03:18:58;98221.59;;;3.21;50.47
21433;BME280;18592;49.708;10.900;2023-02-26T03:21:11;98224.50;;;3.19;50.54
21433;BME280;18592;49.708;10.900;2023-02-26T03:23:21;98225.75;;;3.17;50.65
21433;BME280;18592;49.708;10.900;2023-02-26T03:25:30;98225.75;;;3.17;50.98
21433;BME280;18592;49.708;10.900;2023-02-26T03:30:07;98237.16;;;3.12;50.71
21433;BME280;18592;49.708;10.900;2023-02-26T03:32:18;98239.25;;;3.10;50.58
21433;BME280;18592;49.708;10.900;2023-02-26T03:34:38;98239.03;;;3.05;50.84
21433;BME280;18592;49.708;10.900;2023-02-26T03:36:52;98220.38;;;3.04;50.42
21433;BME280;18592;49.708;10.900;2023-02-26T03:39:13;98227.03;;;3.01;50.63
21433;BME280;18592;49.708;10.900;2023-02-26T03:41:29;98227.84;;;3.02;50.40
21433;BME280;18592;49.708;10.900;2023-02-26T03:45:52;98238.63;;;3.02;50.71
21433;BME280;18592;49.708;10.900;2023-02-26T03:47:59;98240.28;;;3.03;50.26
21433;BME280;18592;49.708;10.900;2023-02-26T03:50:27;98238.84;;;3.00;50.89
21433;BME280;18592;49.708;10.900;2023-02-26T03:53:10;98249.81;;;2.99;50.53
21433;BME280;18592;49.708;10.900;2023-02-26T03:55:25;98250.03;;;2.97;50.78
21433;BME280;18592;49.708;10.900;2023-02-26T03:57:39;98258.09;;;2.97;50.64
21433;BME280;18592;49.708;10.900;2023-02-26T04:00:05;98263.50;;;2.97;50.87
21433;BME280;18592;49.708;10.900;2023-02-26T04:02:23;98265.16;;;2.98;50.73
21433;BME280;18592;49.708;10.900;2023-02-26T04:04:38;98259.34;;;2.95;51.14
21433;BME280;18592;49.708;10.900;2023-02-26T04:06:43;98268.88;;;2.97;50.68
21433;BME280;18592;49.708;10.900;2023-02-26T04:08:46;98262.66;;;2.97;50.67
21433;BME280;18592;49.708;10.900;2023-02-26T04:10:57;98270.13;;;2.95;51.12
21433;BME280;18592;49.708;10.900;2023-02-26T04:13:01;98261.81;;;2.96;50.72
21433;BME280;18592;49.708;10.900;2023-02-26T04:15:03;98269.47;;;2.99;51.16
21433;BME280;18592;49.708;10.900;2023-02-26T04:17:05;98267.63;;;3.00;51.00
21433;BME280;18592;49.708;10.900;2023-02-26T04:19:07;98268.47;;;3.00;51.14
21433;BME280;18592;49.708;10.900;2023-02-26T04:21:11;98270.94;;;3.02;51.05
21433;BME280;18592;49.708;10.900;2023-02-26T04:23:14;98277.16;;;3.02;51.26
21433;BME280;18592;49.708;10.900;2023-02-26T04:25:16;98276.13;;;3.03;50.96
21433;BME280;18592;49.708;10.900;2023-02-26T04:27:18;98277.75;;;3.04;50.82
21433;BME280;18592;49.708;10.900;2023-02-26T04:29:19;98283.75;;;3.06;51.44
21433;BME280;18592;49.708;10.900;2023-02-26T04:31:21;98285.66;;;3.06;50.96
21433;BME280;18592;49.708;10.900;2023-02-26T04:33:23;98291.03;;;3.06;51.13
21433;BME280;18592;49.708;10.900;2023-02-26T04:35:25;98291.63;;;3.08;50.95
21433;BME280;18592;49.708;10.900;2023-02-26T04:37:30;98290.38;;;3.10;51.19
21433;BME280;18592;49.708;10.900;2023-02-26T04:39:32;98292.03;;;3.11;50.98
21433;BME280;18592;49.708;10.900;2023-02-26T04:41:33;98294.53;;;3.13;50.81
21433;BME280;18592;49.708;10.900;2023-02-26T04:43:36;98290.16;;;3.12;51.41
21433;BME280;18592;49.708;10.900;2023-02-26T04:45:51;98298.84;;;3.14;51.04
21433;BME280;18592;49.708;10.900;2023-02-26T04:47:52;98293.28;;;3.15;51.24
21433;BME280;18592;49.708;10.900;2023-02-26T04:49:55;98309.44;;;3.15;51.62
21433;BME280;18592;49.708;10.900;2023-02-26T04:52:00;98306.53;;;3.17;51.43
21433;BME280;18592;49.708;10.900;2023-02-26T04:54:04;98305.69;;;3.16;51.60
21433;BME280;18592;49.708;10.900;2023-02-26T04:56:06;98304.66;;;3.17;51.28
21433;BME280;18592;49.708;10.900;2023-02-26T04:58:08;98310.47;;;3.21;51.06
21433;BME280;18592;49.708;10.900;2023-02-26T05:00:11;98319.34;;;3.21;50.90
21433;BME280;18592;49.708;10.900;2023-02-26T05:02:16;98321.84;;;3.23;51.09
21433;BME280;18592;49.708;10.900;2023-02-26T05:04:20;98317.28;;;3.24;51.05
21433;BME280;18592;49.708;10.900;2023-02-26T05:06:27;98314.38;;;3.25;51.37
21433;BME280;18592;49.708;10.900;2023-02-26T05:08:28;98318.53;;;3.28;51.54
21433;BME280;18592;49.708;10.900;2023-02-26T05:10:30;98320.19;;;3.29;51.23
21433;BME280;18592;49.708;10.900;2023-02-26T05:12:35;98322.88;;;3.29;50.91
21433;BME280;18592;49.708;10.900;2023-02-26T05:14:43;98334.44;;;3.29;51.30
21433;BME280;18592;49.708;10.900;2023-02-26T05:16:45;98324.31;;;3.31;51.50
21433;BME280;18592;49.708;10.900;2023-02-26T05:18:47;98333.00;;;3.33;51.48
21433;BME280;18592;49.708;10.900;2023-02-26T05:20:53;98328.66;;;3.32;51.26
21433;BME280;18592;49.708;10.900;2023-02-26T05:22:55;98337.56;;;3.33;51.55
21433;BME280;18592;49.708;10.900;2023-02-26T05:24:57;98331.16;;;3.34;51.52
21433;BME280;18592;49.708;10.900;2023-02-26T05:27:06;98330.94;;;3.35;51.42
21433;BME280;18592;49.708;10.900;2023-02-26T05:29:11;98336.75;;;3.39;50.80
21433;BME280;18592;49.708;10.900;2023-02-26T05:31:14;98337.34;;;3.41;50.96
21433;BME280;18592;49.708;10.900;2023-02-26T05:33:19;98334.44;;;3.42;51.35
21433;BME280;18592;49.708;10.900;2023-02-26T05:35:20;98335.50;;;3.41;51.08
21433;BME280;18592;49.708;10.900;2023-02-26T05:37:22;98342.50;;;3.42;51.33
21433;BME280;18592;49.708;10.900;2023-02-26T05:39:23;98352.88;;;3.45;51.41
21433;BME280;18592;49.708;10.900;2023-02-26T05:41:25;98347.06;;;3.48;51.06
21433;BME280;18592;49.708;10.900;2023-02-26T05:43:27;98348.50;;;3.51;51.18
21433;BME280;18592;49.708;10.900;2023-02-26T05:45:29;98344.16;;;3.50;51.11
21433;BME280;18592;49.708;10.900;2023-02-26T05:47:34;98353.91;;;3.51;51.07
21433;BME280;18592;49.708;10.900;2023-02-26T05:49:36;98360.31;;;3.50;51.25
21433;BME280;18592;49.708;10.900;2023-02-26T05:51:38;98354.94;;;3.50;51.12
21433;BME280;18592;49.708;10.900;2023-02-26T05:53:40;98356.97;;;3.54;51.11
21433;BME280;18592;49.708;10.900;2023-02-26T05:55:44;98360.50;;;3.55;51.14
21433;BME280;18592;49.708;10.900;2023-02-26T05:57:46;98363.81;;;3.57;51.02
21433;BME280;18592;49.708;10.900;2023-02-26T05:59:48;98371.91;;;3.57;51.26
21433;BME280;18592;49.708;10.900;2023-02-26T06:01:50;98372.72;;;3.57;51.48
21433;BME280;18592;49.708;10.900;2023-02-26T06:03:51;98383.31;;;3.59;50.92
21433;BME280;18592;49.708;10.900;2023-02-26T06:05:53;98385.78;;;3.60;51.30
21433;BME280;18592;49.708;10.900;2023-02-26T06:07:55;98390.56;;;3.58;51.61
21433;BME280;18592;49.708;10.900;2023-02-26T06:09:56;98395.31;;;3.63;50.89
21433;BME280;18592;49.708;10.900;2023-02-26T06:11:58;98401.31;;;3.65;51.21
21433;BME280;18592;49.708;10.900;2023-02-26T06:14:00;98404.00;;;3.65;51.10
21433;BME280;18592;49.708;10.900;2023-02-26T06:16:02;98398.00;;;3.63;51.39
21433;BME280;18592;49.708;10.900;2023-02-26T06:18:04;98404.44;;;3.62;51.33
21433;BME280;18592;49.708;10.900;2023-02-26T06:20:06;98407.78;;;3.64;51.48
21433;BME280;18592;49.708;10.900;2023-02-26T06:22:08;98401.31;;;3.65;51.65
21433;BME280;18592;49.708;10.900;2023-02-26T06:24:09;98413.78;;;3.66;51.23
21433;BME280;18592;49.708;10.900;2023-02-26T06:26:11;98423.50;;;3.67;51.63
21433;BME280;18592;49.708;10.900;2023-02-26T06:28:13;98420.78;;;3.67;51.39
21433;BME280;18592;49.708;10.900;2023-02-26T06:30:14;98418.09;;;3.67;51.39
21433;BME280;18592;49.708;10.900;2023-02-26T06:32:19;98431.16;;;3.70;51.92
21433;BME280;18592;49.708;10.900;2023-02-26T06:34:21;98423.06;;;3.70;51.20
21433;BME280;18592;49.708;10.900;2023-02-26T06:36:23;98426.81;;;3.69;51.39
21433;BME280;18592;49.708;10.900;2023-02-26T06:38:26;98426.59;;;3.70;51.25
21433;BME280;18592;49.708;10.900;2023-02-26T06:40:28;98435.53;;;3.71;51.29
21433;BME280;18592;49.708;10.900;2023-02-26T06:42:30;98436.38;;;3.71;51.30
21433;BME280;18592;49.708;10.900;2023-02-26T06:44:32;98441.53;;;3.73;51.23
21433;BME280;18592;49.708;10.900;2023-02-26T06:46:34;98445.91;;;3.74;51.48
21433;BME280;18592;49.708;10.900;2023-02-26T06:48:35;98449.63;;;3.73;51.18
21433;BME280;18592;49.708;10.900;2023-02-26T06:50:37;98455.63;;;3.75;51.58
21433;BME280;18592;49.708;10.900;2023-02-26T06:52:38;98457.28;;;3.76;52.25
21433;BME280;18592;49.708;10.900;2023-02-26T06:54:40;98460.59;;;3.78;51.29
21433;BME280;18592;49.708;10.900;2023-02-26T06:56:42;98467.66;;;3.79;51.41
21433;BME280;18592;49.708;10.900;2023-02-26T06:58:44;98467.66;;;3.79;51.70
21433;BME280;18592;49.708;10.900;2023-02-26T07:00:45;98467.44;;;3.80;51.71
21433;BME280;18592;49.708;10.900;2023-02-26T07:03:15;98471.78;;;3.81;51.29
21433;BME280;18592;49.708;10.900;2023-02-26T07:05:17;98480.50;;;3.83;51.72
21433;BME280;18592;49.708;10.900;2023-02-26T07:07:18;98476.56;;;3.86;51.46
21433;BME280;18592;49.708;10.900;2023-02-26T07:09:20;98481.72;;;3.88;51.91
21433;BME280;18592;49.708;10.900;2023-02-26T07:11:22;98484.63;;;3.86;51.70
21433;BME280;18592;49.708;10.900;2023-02-26T07:13:24;98495.00;;;3.89;51.84
21433;BME280;18592;49.708;10.900;2023-02-26T07:15:26;98499.16;;;3.92;51.79
21433;BME280;18592;49.708;10.900;2023-02-26T07:17:27;98500.78;;;3.93;51.34
21433;BME280;18592;49.708;10.900;2023-02-26T07:19:29;98504.31;;;3.93;51.88
21433;BME280;18592;49.708;10.900;2023-02-26T07:21:33;98508.69;;;3.94;52.04
21433;BME280;18592;49.708;10.900;2023-02-26T07:23:39;98506.59;;;3.96;51.91
21433;BME280;18592;49.708;10.900;2023-02-26T07:25:43;98511.78;;;3.98;52.28
21433;BME280;18592;49.708;10.900;2023-02-26T07:27:46;98514.66;;;4.03;51.70
21433;BME280;18592;49.708;10.900;2023-02-26T07:29:48;98519.88;;;4.04;52.23
21433;BME280;18592;49.708;10.900;2023-02-26T07:31:49;98523.78;;;4.08;51.75
21433;BME280;18592;49.708;10.900;2023-02-26T07:33:51;98521.09;;;4.08;51.83
21433;BME280;18592;49.708;10.900;2023-02-26T07:35:53;98526.06;;;4.11;51.97
21433;BME280;18592;49.708;10.900;2023-02-26T07:37:55;98533.13;;;4.12;52.31
21433;BME280;18592;49.708;10.900;2023-02-26T07:39:56;98533.53;;;4.16;51.76
21433;BME280;18592;49.708;10.900;2023-02-26T07:41:58;98539.75;;;4.16;51.82
21433;BME280;18592;49.708;10.900;2023-02-26T07:44:02;98542.69;;;4.15;51.73
21433;BME280;18592;49.708;10.900;2023-02-26T07:46:04;98545.16;;;4.16;52.13
21433;BME280;18592;49.708;10.900;2023-02-26T07:48:05;98543.91;;;4.19;51.81
21433;BME280;18592;49.708;10.900;2023-02-26T07:50:07;98549.28;;;4.19;51.82
21433;BME280;18592;49.708;10.900;2023-02-26T07:52:09;98550.13;;;4.19;51.92
21433;BME280;18592;49.708;10.900;2023-02-26T07:54:12;98546.00;;;4.17;51.68
21433;BME280;18592;49.708;10.900;2023-02-26T07:56:13;98547.63;;;4.18;51.77
21433;BME280;18592;49.708;10.900;2023-02-26T07:58:16;98553.66;;;4.20;51.63
21433;BME280;18592;49.708;10.900;2023-02-26T08:00:21;98557.59;;;4.24;51.95
21433;BME280;18592;49.708;10.900;2023-02-26T08:02:22;98559.03;;;4.26;51.89
21433;BME280;18592;49.708;10.900;2023-02-26T08:04:24;98557.34;;;4.25;51.65
21433;BME280;18592;49.708;10.900;2023-02-26T08:06:27;98559.25;;;4.25;51.99
21433;BME280;18592;49.708;10.900;2023-02-26T08:08:28;98569.00;;;4.26;52.08
21433;BME280;18592;49.708;10.900;2023-02-26T08:10:32;98566.28;;;4.32;52.16
21433;BME280;18592;49.708;10.900;2023-02-26T08:12:34;98560.03;;;4.38;52.18
21433;BME280;18592;49.708;10.900;2023-02-26T08:14:37;98557.16;;;4.40;52.11
21433;BME280;18592;49.708;10.900;2023-02-26T08:16:40;98560.84;;;4.45;52.09
21433;BME280;18592;49.708;10.900;2023-02-26T08:18:47;98567.69;;;4.48;51.85
21433;BME280;18592;49.708;10.900;2023-02-26T08:20:51;98569.97;;;4.51;51.91
21433;BME280;18592;49.708;10.900;2023-02-26T08:22:53;98577.00;;;4.59;51.86
21433;BME280;18592;49.708;10.900;2023-02-26T08:24:56;98579.88;;;4.64;51.59
21433;BME280;18592;49.708;10.900;2023-02-26T08:26:58;98584.88;;;4.67;51.71
21433;BME280;18592;49.708;10.900;2023-02-26T08:29:00;98585.28;;;4.70;51.43
21433;BME280;18592;49.708;10.900;2023-02-26T08:31:01;98579.88;;;4.70;51.98
21433;BME280;18592;49.708;10.900;2023-02-26T08:33:05;98584.03;;;4.73;52.18
21433;BME280;18592;49.708;10.900;2023-02-26T08:35:07;98577.38;;;4.75;52.09
21433;BME280;18592;49.708;10.900;2023-02-26T08:37:09;98587.53;;;4.80;51.80
21433;BME280;18592;49.708;10.900;2023-02-26T08:39:12;98588.31;;;4.87;52.09
21433;BME280;18592;49.708;10.900;2023-02-26T08:41:13;98587.91;;;4.90;52.03
21433;BME280;18592;49.708;10.900;2023-02-26T08:43:15;98597.22;;;4.94;50.99
21433;BME280;18592;49.708;10.900;2023-02-26T08:45:17;98593.50;;;4.95;51.45
21433;BME280;18592;49.708;10.900;2023-02-26T08:47:20;98600.34;;;4.97;51.69
21433;BME280;18592;49.708;10.900;2023-02-26T08:49:29;98608.22;;;4.99;50.97
21433;BME280;18592;49.708;10.900;2023-02-26T08:51:31;98614.22;;;5.01;51.22
21433;BME280;18592;49.708;10.900;2023-02-26T08:53:33;98618.00;;;5.00;51.73
21433;BME280;18592;49.708;10.900;2023-02-26T08:55:34;98624.59;;;5.04;51.45
21433;BME280;18592;49.708;10.900;2023-02-26T08:57:36;98624.78;;;5.09;51.52
21433;BME280;18592;49.708;10.900;2023-02-26T08:59:38;98630.81;;;5.11;50.85
21433;BME280;18592;49.708;10.900;2023-02-26T09:01:40;98629.78;;;5.12;51.02
21433;BME280;18592;49.708;10.900;2023-02-26T09:03:42;98619.38;;;5.16;50.81
21433;BME280;18592;49.708;10.900;2023-02-26T09:05:44;98631.03;;;5.16;50.29
21433;BME280;18592;49.708;10.900;2023-02-26T09:07:56;98637.88;;;5.19;50.69
21433;BME280;18592;49.708;10.900;2023-02-26T09:10:09;98642.22;;;5.20;50.70
21433;BME280;18592;49.708;10.900;2023-02-26T09:12:11;98647.84;;;5.18;50.59
21433;BME280;18592;49.708;10.900;2023-02-26T09:14:13;98649.94;;;5.16;50.29
21433;BME280;18592;49.708;10.900;2023-02-26T09:16:15;98651.81;;;5.16;50.72
21433;BME280;18592;49.708;10.900;2023-02-26T09:18:20;98653.25;;;5.18;50.79
21433;BME280;18592;49.708;10.900;2023-02-26T09:20:21;98667.13;;;5.22;50.26
21433;BME280;18592;49.708;10.900;2023-02-26T09:22:24;98662.56;;;5.22;50.95
21433;BME280;18592;49.708;10.900;2023-02-26T09:24:26;98661.31;;;5.25;50.57
21433;BME280;18592;49.708;10.900;2023-02-26T09:26:27;98673.38;;;5.22;50.82
21433;BME280;18592;49.708;10.900;2023-02-26T09:28:29;98673.97;;;5.24;50.68
21433;BME280;18592;49.708;10.900;2023-02-26T09:30:34;98683.75;;;5.25;51.19
21433;BME280;18592;49.708;10.900;2023-02-26T09:32:35;98682.50;;;5.28;50.82
21433;BME280;18592;49.708;10.900;2023-02-26T09:34:38;98687.91;;;5.28;50.70
21433;BME280;18592;49.708;10.900;2023-02-26T09:36:41;98688.31;;;5.31;50.68
21433;BME280;18592;49.708;10.900;2023-02-26T09:38:46;98690.38;;;5.29;50.86
21433;BME280;18592;49.708;10.900;2023-02-26T09:41:08;98696.63;;;5.30;50.14
21433;BME280;18592;49.708;10.900;2023-02-26T09:45:33;98708.88;;;5.32;50.28
21433;BME280;18592;49.708;10.900;2023-02-26T09:47:44;98709.94;;;5.31;50.38
21433;BME280;18592;49.708;10.900;2023-02-26T09:50:03;98709.94;;;5.31;50.47
21433;BME280;18592;49.708;10.900;2023-02-26T09:52:16;98722.19;;;5.27;50.14
21433;BME280;18592;49.708;10.900;2023-02-26T09:54:25;98731.16;;;5.28;50.22
21433;BME280;18592;49.708;10.900;2023-02-26T09:56:32;98730.53;;;5.26;50.13
21433;BME280;18592;49.708;10.900;2023-02-26T09:58:37;98720.34;;;5.28;50.29
21433;BME280;18592;49.708;10.900;2023-02-26T10:00:50;98721.38;;;5.27;50.58
21433;BME280;18592;49.708;10.900;2023-02-26T10:03:04;98721.16;;;5.28;49.64
21433;BME280;18592;49.708;10.900;2023-02-26T10:05:33;98723.88;;;5.28;49.68
21433;BME280;18592;49.708;10.900;2023-02-26T10:07:56;98725.50;;;5.29;50.24
21433;BME280;18592;49.708;10.900;2023-02-26T10:10:26;98721.56;;;5.32;50.21
21433;BME280;18592;49.708;10.900;2023-02-26T10:12:38;98720.94;;;5.30;49.97
21433;BME280;18592;49.708;10.900;2023-02-26T10:17:10;98728.41;;;5.34;50.20
21433;BME280;18592;49.708;10.900;2023-02-26T10:19:19;98734.66;;;5.35;49.48
21433;BME280;18592;49.708;10.900;2023-02-26T10:21:36;98731.75;;;5.36;49.83
21433;BME280;18592;49.708;10.900;2023-02-26T10:23:45;98735.69;;;5.40;49.60
21433;BME280;18592;49.708;10.900;2023-02-26T10:26:18;98742.75;;;5.41;50.09
21433;BME280;18592;49.708;10.900;2023-02-26T10:28:47;98736.28;;;5.42;49.99
21433;BME280;18592;49.708;10.900;2023-02-26T10:33:14;98751.06;;;5.46;49.38
21433;BME280;18592;49.708;10.900;2023-02-26T10:35:19;98759.53;;;5.50;49.34
21433;BME280;18592;49.708;10.900;2023-02-26T10:38:01;98754.34;;;5.48;49.93
21433;BME280;18592;49.708;10.900;2023-02-26T10:42:34;98760.34;;;5.57;49.96
21433;BME280;18592;49.708;10.900;2023-02-26T10:47:14;98762.44;;;5.61;49.27
21433;BME280;18592;49.708;10.900;2023-02-26T10:49:44;98766.78;;;5.62;49.33
21433;BME280;18592;49.708;10.900;2023-02-26T10:51:48;98769.06;;;5.65;49.23
21433;BME280;18592;49.708;10.900;2023-02-26T10:53:57;98768.03;;;5.66;48.92
21433;BME280;18592;49.708;10.900;2023-02-26T10:56:24;98779.63;;;5.67;48.78
21433;BME280;18592;49.708;10.900;2023-02-26T10:58:27;98775.28;;;5.66;48.75
21433;BME280;18592;49.708;10.900;2023-02-26T11:00:29;98777.38;;;5.64;49.36
21433;BME280;18592;49.708;10.900;2023-02-26T11:02:41;98773.19;;;5.68;49.62
21433;BME280;18592;49.708;10.900;2023-02-26T11:04:44;98771.53;;;5.73;49.25
21433;BME280;18592;49.708;10.900;2023-02-26T11:06:49;98768.38;;;5.76;49.30
21433;BME280;18592;49.708;10.900;2023-02-26T11:08:54;98781.69;;;5.85;49.22
21433;BME280;18592;49.708;10.900;2023-02-26T11:11:01;98780.59;;;5.92;49.79
21433;BME280;18592;49.708;10.900;2023-02-26T11:13:03;98776.81;;;6.00;49.35
21433;BME280;18592;49.708;10.900;2023-02-26T11:15:05;98775.72;;;6.07;49.13
21433;BME280;18592;49.708;10.900;2023-02-26T11:17:19;98778.00;;;6.10;48.97
21433;BME280;18592;49.708;10.900;2023-02-26T11:19:30;98778.78;;;6.17;48.33
21433;BME280;18592;49.708;10.900;2023-02-26T11:21:38;98782.34;;;6.18;48.43
21433;BME280;18592;49.708;10.900;2023-02-26T11:23:42;98786.28;;;6.22;48.39
21433;BME280;18592;49.708;10.900;2023-02-26T11:25:45;98782.50;;;6.23;48.58
21433;BME280;18592;49.708;10.900;2023-02-26T11:27:54;98783.94;;;6.25;48.29
21433;BME280;18592;49.708;10.900;2023-02-26T11:30:04;98787.06;;;6.29;48.65
21433;BME280;18592;49.708;10.900;2023-02-26T11:32:18;98788.69;;;6.30;48.38
21433;BME280;18592;49.708;10.900;2023-02-26T11:34:24;98792.06;;;6.32;48.72
21433;BME280;18592;49.708;10.900;2023-02-26T11:36:28;98788.06;;;6.34;48.68
21433;BME280;18592;49.708;10.900;2023-02-26T11:38:31;98783.88;;;6.38;48.42
21433;BME280;18592;49.708;10.900;2023-02-26T11:40:39;98770.75;;;6.42;47.90
21433;BME280;18592;49.708;10.900;2023-02-26T11:42:51;98777.78;;;6.43;47.82
21433;BME280;18592;49.708;10.900;2023-02-26T11:44:59;98784.88;;;6.44;47.86
21433;BME280;18592;49.708;10.900;2023-02-26T11:47:38;98794.03;;;6.43;47.07
21433;BME280;18592;49.708;10.900;2023-02-26T11:49:50;98776.53;;;6.46;47.72
21433;BME280;18592;49.708;10.900;2023-02-26T11:52:22;98774.22;;;6.49;47.81
21433;BME280;18592;49.708;10.900;2023-02-26T11:54:34;98765.22;;;6.55;47.96